createdAt,value
2018-07-24T17:46:16.186Z,8.60
2018-07-24T17:48:59.926Z,7.20
2018-07-24T17:51:45.029Z,8.60
2018-07-24T17:54:27.907Z,6.00
2018-07-24T17:57:02.165Z,8.00
2018-07-24T17:59:35.932Z,7.60
2018-07-24T18:02:09.684Z,8.00
2018-07-24T18:04:43.676Z,7.00
2018-07-24T18:07:17.559Z,7.00
2018-07-24T18:09:51.700Z,7.80
2018-07-24T18:12:25.470Z,7.00
2018-07-24T18:14:59.127Z,7.00
2018-07-24T18:17:32.903Z,7.00
2018-07-24T18:20:08.656Z,6.00
2018-07-24T18:22:42.354Z,6.40
2018-07-24T18:25:17.092Z,6.25
2018-07-24T18:27:50.868Z,7.00
2018-07-24T18:30:25.374Z,7.00
2018-07-24T18:32:59.208Z,8.40
2018-07-24T18:35:32.887Z,7.00
2018-07-24T18:38:08.414Z,8.00
2018-07-24T18:40:42.199Z,8.00
2018-07-24T18:43:16.895Z,7.00
2018-07-24T18:45:50.630Z,7.00
2018-07-24T18:48:24.302Z,7.40
2018-07-24T18:50:58.168Z,7.00
2018-07-24T18:53:31.967Z,7.60
2018-07-24T18:56:06.041Z,7.50
2018-07-24T18:58:39.870Z,7.40
2018-07-24T19:01:14.068Z,6.25
2018-07-24T19:03:48.637Z,6.20
2018-07-24T19:06:22.367Z,8.00
2018-07-24T19:08:57.517Z,7.00
2018-07-24T19:11:31.942Z,7.25
2018-07-24T19:14:05.668Z,7.20
2018-07-24T19:16:39.622Z,7.25
2018-07-24T19:19:13.297Z,7.20
2018-07-24T19:21:46.927Z,8.00
2018-07-24T19:24:20.619Z,8.20
2018-07-24T19:26:54.283Z,7.50
2018-07-24T19:29:28.012Z,6.40
2018-07-24T19:32:01.994Z,8.00
2018-07-24T19:34:36.046Z,9.20
2018-07-24T19:37:09.620Z,7.75
2018-07-24T19:39:43.269Z,9.40
2018-07-24T19:42:17.075Z,10.25
2018-07-24T19:44:50.883Z,9.60
2018-07-24T19:47:24.698Z,10.00
2018-07-24T19:49:58.382Z,8.00
2018-07-24T19:52:32.051Z,11.50
2018-07-24T19:55:06.089Z,10.00
2018-07-24T19:57:39.751Z,11.00
2018-07-24T20:00:13.769Z,10.80
2018-07-24T20:02:47.829Z,10.40
2018-07-24T20:05:21.529Z,10.00
2018-07-24T20:07:55.218Z,9.00
2018-07-24T20:10:28.982Z,9.75
2018-07-24T20:13:02.922Z,8.80
2018-07-24T20:15:36.889Z,9.20
2018-07-24T20:18:10.574Z,11.20
2018-07-24T20:20:44.500Z,8.50
2018-07-24T20:23:18.568Z,8.20
2018-07-24T20:25:52.491Z,11.25
2018-07-24T20:28:26.420Z,13.00
2018-07-24T20:31:00.588Z,12.00
2018-07-24T20:33:34.720Z,12.20
2018-07-24T20:36:08.984Z,10.50
2018-07-24T20:38:43.350Z,11.20
2018-07-24T20:41:17.402Z,12.25
2018-07-24T20:43:51.100Z,12.20
2018-07-24T20:46:24.926Z,11.00
2018-07-24T20:48:59.368Z,12.60
2018-07-24T20:51:33.196Z,12.00
2018-07-24T20:54:07.102Z,12.20
2018-07-24T20:56:40.978Z,13.00
2018-07-24T20:59:14.909Z,12.00
2018-07-24T21:01:48.662Z,13.00
2018-07-24T21:04:22.737Z,12.20
2018-07-24T21:06:56.511Z,13.25
2018-07-24T21:09:31.328Z,12.40
2018-07-24T21:12:05.093Z,11.80
2018-07-24T21:14:38.844Z,12.60
2018-07-24T21:17:12.539Z,12.00
2018-07-24T21:19:46.276Z,12.80
2018-07-24T21:22:20.170Z,11.25
2018-07-24T21:24:54.219Z,12.00
2018-07-24T21:27:27.912Z,11.20
2018-07-24T21:30:03.160Z,12.00
2018-07-24T21:32:37.016Z,11.80
2018-07-24T21:35:11.175Z,11.80
2018-07-24T21:37:44.854Z,9.80
2018-07-24T21:40:18.501Z,13.00
2018-07-24T21:42:52.296Z,12.00
2018-07-24T21:45:26.012Z,11.80
2018-07-24T21:47:59.786Z,11.80
2018-07-24T21:50:33.504Z,12.00
2018-07-24T21:53:07.192Z,12.60
2018-07-24T21:55:40.933Z,12.00
2018-07-24T21:58:14.570Z,12.60
2018-07-24T22:00:52.366Z,11.00
2018-07-24T22:03:26.175Z,12.00
2018-07-24T22:06:00.096Z,12.00
2018-07-24T22:08:33.906Z,14.00
2018-07-24T22:11:07.939Z,13.75
2018-07-24T22:13:41.752Z,13.00
2018-07-24T22:16:15.832Z,12.00
2018-07-24T22:18:49.800Z,12.00
2018-07-24T22:21:23.501Z,10.60
2018-07-24T22:23:57.177Z,11.00
2018-07-24T22:26:30.934Z,12.40
2018-07-24T22:29:04.639Z,12.40
2018-07-24T22:31:38.373Z,10.75
2018-07-24T22:34:12.104Z,11.80
2018-07-24T22:36:45.756Z,12.00
2018-07-24T22:39:19.527Z,12.60
2018-07-24T22:41:53.381Z,11.25
2018-07-24T22:44:27.093Z,11.80
2018-07-24T22:47:00.775Z,11.00
2018-07-24T22:49:34.554Z,11.00
2018-07-24T22:52:08.916Z,11.00
2018-07-24T22:54:42.667Z,9.80
2018-07-24T22:57:16.394Z,11.50
2018-07-24T22:59:50.238Z,12.00
2018-07-24T23:02:24.026Z,10.40
2018-07-24T23:04:57.681Z,10.40
2018-07-24T23:07:31.369Z,11.75
2018-07-24T23:10:05.637Z,12.00
2018-07-24T23:12:39.298Z,10.40
2018-07-24T23:15:12.983Z,11.50
2018-07-24T23:17:46.561Z,11.40
2018-07-24T23:20:20.254Z,12.00
2018-07-24T23:22:53.882Z,11.00
2018-07-24T23:25:27.627Z,11.25
2018-07-24T23:28:01.350Z,14.00
2018-07-24T23:30:35.154Z,10.80
2018-07-24T23:33:08.838Z,12.00
2018-07-24T23:35:42.882Z,11.50
2018-07-24T23:38:16.502Z,11.00
2018-07-24T23:40:50.118Z,11.75
2018-07-24T23:43:23.841Z,12.00
2018-07-24T23:45:57.475Z,13.00
2018-07-24T23:48:31.153Z,12.00
2018-07-24T23:51:04.860Z,11.80
2018-07-24T23:53:38.534Z,12.00
2018-07-24T23:56:12.224Z,11.00
2018-07-24T23:58:45.888Z,12.00
